Time;durP1;ratioP1;P1;durP2;ratioP2;P2;SDS_P1;SDS_P2;PMS_P1;PMS_P2;Temp;Humidity;BMP_temperature;BMP_pressure;BME280_temperature;BME280_humidity;BME280_pressure;Samples;Min_cycle;Max_cycle;Signal;HPM_P1;HPM_P2
2021/03/27 00:01:22;;;;;;;10.70;6.18;;;;;;;6.61;76.18;101195.72;5016605;28;20054;-73
2021/03/27 00:04:02;;;;;;;9.50;5.78;;;;;;;6.50;76.52;101204.31;5032677;28;20092;-73
2021/03/27 00:07:00;;;;;;;10.63;5.63;;;;;;;6.56;77.16;101200.44;5020389;28;20076;-74
2021/03/27 00:09:42;;;;;;;8.05;4.25;;;;;;;6.35;76.17;101187.19;5021401;28;20061;-73
2021/03/27 00:12:24;;;;;;;7.15;4.93;;;;;;;6.33;76.12;101215.09;5017115;28;20140;-73
2021/03/27 00:15:10;;;;;;;7.20;4.05;;;;;;;6.17;76.69;101222.34;5019783;28;20049;-73
2021/03/27 00:17:38;;;;;;;5.82;3.92;;;;;;;6.13;76.92;101204.34;5014673;28;20131;-73
2021/03/27 00:20:11;;;;;;;;;;;;;;;6.12;76.49;101220.06;5031024;28;20053;-73
2021/03/27 00:22:49;;;;;;;7.05;2.90;;;;;;;6.13;77.06;101211.31;5029051;28;19929;-73
2021/03/27 00:25:21;;;;;;;3.33;2.10;;;;;;;6.06;76.45;101221.34;5028521;28;20064;-74
2021/03/27 00:28:10;;;;;;;7.20;2.53;;;;;;;6.07;76.39;101216.94;5031959;28;20057;-73
2021/03/27 00:30:45;;;;;;;2.67;1.52;;;;;;;6.05;76.58;101214.44;5036576;28;20103;-72
2021/03/27 00:33:12;;;;;;;3.80;1.45;;;;;;;5.99;76.06;101214.06;5029666;28;20057;-72
2021/03/27 00:35:42;;;;;;;3.78;1.00;;;;;;;6.02;77.02;101212.06;5014991;28;20599;-75
2021/03/27 00:38:13;;;;;;;2.83;1.05;;;;;;;6.05;76.13;101211.84;5021711;28;20555;-75
2021/03/27 00:40:45;;;;;;;2.97;1.17;;;;;;;6.10;76.64;101219.34;5036527;28;20057;-75
2021/03/27 00:43:18;;;;;;;3.40;0.90;;;;;;;6.08;75.79;101218.63;5041724;28;20092;-73
2021/03/27 00:45:48;;;;;;;2.72;1.10;;;;;;;6.04;76.43;101210.19;4998508;28;20057;-73
2021/03/27 00:48:26;;;;;;;4.85;1.25;;;;;;;6.04;76.05;101210.19;5020670;28;20065;-73
2021/03/27 00:50:58;;;;;;;4.82;1.17;;;;;;;6.09;76.10;101217.69;5027311;28;20492;-73
2021/03/27 00:53:24;;;;;;;6.63;1.60;;;;;;;6.03;77.01;101221.53;5045294;28;20061;-73
2021/03/27 00:55:56;;;;;;;5.75;1.35;;;;;;;6.08;77.14;101221.22;5021144;28;20621;-73
2021/03/27 00:58:29;;;;;;;2.65;1.38;;;;;;;6.03;77.27;101213.72;5025863;28;20057;-73
2021/03/27 01:01:01;;;;;;;6.70;1.95;;;;;;;6.06;77.33;101215.31;5016676;28;20054;-73
2021/03/27 01:03:44;;;;;;;4.40;2.00;;;;;;;5.92;77.38;101221.44;5022602;28;20064;-74
2021/03/27 01:06:15;;;;;;;6.38;2.45;;;;;;;5.85;78.20;101213.19;5020152;28;20465;-73
2021/03/27 01:08:46;;;;;;;9.77;3.15;;;;;;;5.80;78.46;101225.72;5023600;28;20595;-73
2021/03/27 01:11:30;;;;;;;7.95;3.35;;;;;;;5.79;78.33;101229.25;5026676;28;20057;-73
2021/03/27 01:13:59;;;;;;;11.93;4.47;;;;;;;5.75;78.91;101220.00;5016352;28;20092;-73
2021/03/27 01:16:31;;;;;;;9.55;4.35;;;;;;;5.76;78.85;101219.03;5018942;28;20057;-74
2021/03/27 01:19:06;;;;;;;11.90;4.50;;;;;;;5.88;79.35;101226.03;5027124;28;20068;-73
2021/03/27 01:21:38;;;;;;;11.95;5.70;;;;;;;5.85;78.83;101222.78;5014404;28;20050;-74
2021/03/27 01:24:10;;;;;;;16.00;5.68;;;;;;;5.85;79.11;101218.41;5031340;28;20056;-73
2021/03/27 01:26:43;;;;;;;13.20;6.47;;;;;;;5.83;78.78;101224.66;5004491;28;20110;-73
2021/03/27 01:29:13;;;;;;;12.75;5.70;;;;;;;5.82;78.86;101226.44;5022837;28;20068;-73
2021/03/27 01:31:45;;;;;;;12.18;6.45;;;;;;;5.86;78.74;101222.69;5018933;28;20542;-73
2021/03/27 01:34:39;;;;;;;16.30;7.28;;;;;;;5.85;78.61;101235.81;5023569;28;20115;-74
2021/03/27 01:37:11;;;;;;;12.82;6.55;;;;;;;5.88;79.05;101231.22;5017210;28;20060;-74
2021/03/27 01:39:48;;;;;;;18.40;7.57;;;;;;;5.89;79.06;101232.88;5031214;28;20598;-74
2021/03/27 01:42:35;;;;;;;11.70;6.05;;;;;;;5.84;78.87;101229.78;5019782;28;20493;-74
2021/03/27 01:45:16;;;;;;;17.38;8.07;;;;;;;5.94;79.09;101236.00;5011169;28;20089;-73
2021/03/27 01:47:49;;;;;;;12.93;7.50;;;;;;;5.97;78.58;101231.56;5022606;28;20111;-73
2021/03/27 01:50:30;;;;;;;21.23;11.43;;;;;;;5.89;78.14;101227.66;5006858;28;20053;-73
2021/03/27 01:53:17;;;;;;;27.63;13.00;;;;;;;5.85;78.79;101233.22;5015518;28;20061;-73
2021/03/27 01:56:00;;;;;;;26.13;12.85;;;;;;;5.80;78.17;101232.69;5024662;28;20056;-73
2021/03/27 01:58:37;;;;;;;30.30;12.48;;;;;;;5.76;78.81;101242.47;5008969;28;20061;-73
2021/03/27 02:01:06;;;;;;;25.65;14.27;;;;;;;5.78;78.82;101239.75;5005442;28;20053;-73
2021/03/27 02:03:59;;;;;;;27.98;15.43;;;;;;;5.73;78.75;101255.72;5012474;28;20497;-73
2021/03/27 02:06:33;;;;;;;22.15;12.40;;;;;;;5.74;78.87;101245.19;5003649;28;20061;-73
2021/03/27 02:09:12;;;;;;;24.83;14.13;;;;;;;5.82;78.30;101249.03;5034331;28;20670;-73
2021/03/27 02:11:52;;;;;;;28.77;14.18;;;;;;;5.85;79.08;101244.44;5025220;28;20088;-73
2021/03/27 02:14:47;;;;;;;30.35;15.00;;;;;;;5.84;78.38;101245.41;5004330;28;20504;-73
2021/03/27 02:17:21;;;;;;;24.35;12.77;;;;;;;5.83;78.36;101241.13;5031828;28;20050;-73
2021/03/27 02:20:06;;;;;;;28.23;13.75;;;;;;;5.85;78.15;101248.81;5001973;28;20091;-73
2021/03/27 02:22:39;;;;;;;24.83;12.73;;;;;;;5.82;77.11;101265.50;5023110;28;20119;-73
2021/03/27 02:25:40;;;;;;;30.02;14.45;;;;;;;5.82;77.81;101247.28;5032839;28;20828;-73
2021/03/27 02:28:23;;;;;;;25.83;13.57;;;;;;;5.86;77.46;101247.88;5039342;28;20060;-74
2021/03/27 02:30:57;;;;;;;23.52;12.50;;;;;;;5.82;77.13;101255.09;5006288;28;20096;-73
2021/03/27 02:33:35;;;;;;;23.88;12.82;;;;;;;5.84;77.09;101262.78;5003335;28;20132;-74
2021/03/27 02:36:05;;;;;;;;;;;;;;;5.82;77.26;101257.69;5002116;28;20397;-73
2021/03/27 02:38:55;;;;;;;29.15;12.75;;;;;;;5.86;76.63;101293.00;5004401;28;19996;-73
2021/03/27 02:41:59;;;;;;;27.98;13.30;;;;;;;5.83;76.79;101284.56;5024669;28;20057;-73
2021/03/27 02:44:31;;;;;;;26.17;14.73;;;;;;;5.81;77.78;101287.25;4999002;28;20111;-73
2021/03/27 02:47:11;;;;;;;27.85;13.23;;;;;;;5.82;76.83;101285.47;5025745;28;20065;-74
2021/03/27 02:50:06;;;;;;;26.95;11.90;;;;;;;5.80;77.55;101289.94;5024271;28;20148;-73
2021/03/27 02:52:40;;;;;;;22.05;10.55;;;;;;;5.78;77.68;101284.84;5032051;28;20088;-73
2021/03/27 02:55:27;;;;;;;27.92;11.55;;;;;;;5.80;77.86;101288.22;5017035;28;20559;-73
2021/03/27 02:58:20;;;;;;;23.38;12.38;;;;;;;5.77;77.63;101283.19;5018725;28;20053;-73
2021/03/27 03:01:08;;;;;;;22.55;10.93;;;;;;;5.70;77.46;101295.81;5004902;28;20057;-73
2021/03/27 03:03:50;;;;;;;27.02;11.77;;;;;;;5.68;78.02;101307.22;5026871;28;20119;-73
2021/03/27 03:06:30;;;;;;;24.52;10.68;;;;;;;5.63;77.67;101306.72;5018111;28;20148;-74
2021/03/27 03:09:04;;;;;;;27.67;12.07;;;;;;;5.61;77.72;101306.81;5008751;28;20859;-74
2021/03/27 03:11:54;;;;;;;26.83;11.60;;;;;;;5.56;78.09;101316.69;5017870;28;20061;-73
2021/03/27 03:14:40;;;;;;;26.10;10.80;;;;;;;5.49;77.95;101312.84;5025950;28;20488;-73
2021/03/27 03:17:29;;;;;;;22.05;9.65;;;;;;;5.44;78.50;101323.53;5017438;28;20568;-73
2021/03/27 03:20:21;;;;;;;21.85;10.02;;;;;;;5.43;78.10;101323.63;5023230;28;20172;-73
2021/03/27 03:23:00;;;;;;;20.35;10.07;;;;;;;5.40;78.53;101316.03;5017037;28;20197;-73
2021/03/27 03:25:31;;;;;;;29.75;10.95;;;;;;;5.44;78.41;101317.50;5006058;28;20057;-73
2021/03/27 03:28:37;;;;;;;29.38;11.30;;;;;;;5.43;78.36;101321.88;5004234;28;20057;-73
2021/03/27 03:31:11;;;;;;;23.77;11.18;;;;;;;5.40;78.54;101324.69;4989875;28;20065;-73
2021/03/27 03:33:55;;;;;;;25.27;10.70;;;;;;;5.42;78.58;101322.81;5017593;28;20063;-73
2021/03/27 03:36:42;;;;;;;24.20;10.13;;;;;;;5.41;78.89;101326.34;5013753;28;20119;-73
2021/03/27 03:39:31;;;;;;;32.42;12.18;;;;;;;5.54;78.61;101326.38;5029513;28;20057;-73
2021/03/27 03:42:13;;;;;;;33.70;12.73;;;;;;;5.57;78.49;101326.19;5007334;28;20086;-73
2021/03/27 03:44:39;;;;;;;28.80;12.93;;;;;;;5.58;78.58;101335.63;5016362;28;20080;-73
2021/03/27 03:47:16;;;;;;;32.45;13.15;;;;;;;5.56;78.07;101342.72;5023799;28;20083;-73
2021/03/27 03:50:08;;;;;;;36.17;13.30;;;;;;;5.58;78.33;101340.00;5019842;28;20417;-73
2021/03/27 03:52:44;;;;;;;36.03;12.27;;;;;;;5.54;77.74;101340.22;5014739;28;20061;-74
2021/03/27 03:55:44;;;;;;;35.88;13.68;;;;;;;5.56;77.78;101340.09;5018056;28;20065;-73
2021/03/27 03:58:21;;;;;;;34.28;12.75;;;;;;;5.52;78.21;101341.25;5017643;28;20061;-73
2021/03/27 04:01:21;;;;;;;22.92;11.88;;;;;;;5.52;78.02;101347.28;4998232;28;20838;-73
2021/03/27 04:03:54;;;;;;;34.50;13.90;;;;;;;5.47;77.80;101343.31;4987770;28;20622;-74
2021/03/27 04:06:27;;;;;;;33.35;13.30;;;;;;;5.57;77.86;101353.94;5034629;28;20114;-74
2021/03/27 04:08:59;;;;;;;29.40;12.10;;;;;;;5.58;78.16;101347.81;5016968;28;20053;-74
2021/03/27 04:11:56;;;;;;;28.20;12.70;;;;;;;5.48;78.15;101356.22;5022866;28;20065;-74
2021/03/27 04:14:34;;;;;;;38.45;13.63;;;;;;;5.54;77.97;101353.22;4997770;28;20064;-74
2021/03/27 04:17:18;;;;;;;35.80;11.93;;;;;;;5.61;77.93;101355.44;5021756;28;20408;-74
2021/03/27 04:20:04;;;;;;;38.45;12.85;;;;;;;5.58;77.71;101353.03;5016142;28;20139;-73
2021/03/27 04:22:38;;;;;;;33.67;12.65;;;;;;;5.62;77.95;101350.09;5012046;28;20123;-73
2021/03/27 04:25:21;;;;;;;30.65;11.20;;;;;;;5.59;78.08;101352.94;5011867;28;20196;-73
2021/03/27 04:28:01;;;;;;;29.50;10.70;;;;;;;5.58;78.04;101353.84;5017178;28;20057;-73
2021/03/27 04:30:51;;;;;;;33.05;10.68;;;;;;;5.54;77.48;101358.41;5025107;28;20106;-73
2021/03/27 04:33:29;;;;;;;33.88;9.85;;;;;;;5.57;77.36;101347.00;5013875;28;20061;-73
2021/03/27 04:35:59;;;;;;;28.63;9.38;;;;;;;5.48;77.63;101351.03;5004636;28;20053;-74
2021/03/27 04:38:35;;;;;;;24.05;9.02;;;;;;;5.46;77.97;101350.28;5019360;28;20057;-74
2021/03/27 04:41:19;;;;;;;25.38;9.45;;;;;;;5.46;77.84;101337.28;5016917;28;20049;-74
2021/03/27 04:43:52;;;;;;;21.58;9.10;;;;;;;5.43;77.84;101349.66;5029379;28;20061;-73
2021/03/27 04:46:41;;;;;;;30.75;10.38;;;;;;;5.45;77.62;101364.25;5002256;28;20096;-74
2021/03/27 04:49:12;;;;;;;26.23;8.75;;;;;;;5.44;77.71;101365.16;5017281;28;20558;-74
2021/03/27 04:51:53;;;;;;;26.48;8.50;;;;;;;5.43;76.95;101367.88;5036065;28;20057;-74
2021/03/27 04:54:33;;;;;;;28.08;8.95;;;;;;;5.45;77.69;101369.44;5025367;28;20101;-74
2021/03/27 04:57:18;;;;;;;22.60;7.93;;;;;;;5.52;77.23;101370.69;5021150;28;20080;-73
2021/03/27 05:00:05;;;;;;;36.65;8.75;;;;;;;5.52;77.07;101390.69;5023120;28;20111;-73
2021/03/27 05:02:47;;;;;;;26.35;9.40;;;;;;;5.52;76.72;101388.91;5013728;28;20061;-73
2021/03/27 05:05:33;;;;;;;21.10;7.65;;;;;;;5.54;76.97;101391.44;4998711;28;20061;-73
2021/03/27 05:08:09;;;;;;;25.33;7.70;;;;;;;5.57;77.08;101396.44;5021936;28;20064;-73
2021/03/27 05:10:39;;;;;;;25.13;8.30;;;;;;;5.58;76.76;101392.88;5006735;28;20061;-73
2021/03/27 05:13:17;;;;;;;18.00;7.50;;;;;;;5.62;76.53;101388.31;5026922;28;20085;-74
2021/03/27 05:15:51;;;;;;;20.65;6.20;;;;;;;5.61;76.69;101387.50;5033913;28;20061;-74
2021/03/27 05:18:36;;;;;;;27.17;6.45;;;;;;;5.63;76.55;101387.41;5035870;28;20062;-74
2021/03/27 05:21:29;;;;;;;25.77;6.55;;;;;;;5.71;76.41;101391.16;4997038;28;20156;-73
2021/03/27 05:24:14;;;;;;;18.30;5.40;;;;;;;5.71;77.10;101405.94;5021393;28;20826;-74
2021/03/27 05:26:54;;;;;;;26.45;6.10;;;;;;;5.55;78.30;101425.16;5016072;28;20057;-73
2021/03/27 05:29:54;;;;;;;18.25;5.32;;;;;;;5.39;77.36;101423.63;5028360;28;20064;-74
2021/03/27 05:32:58;;;;;;;17.77;4.50;;;;;;;5.26;78.40;101437.44;5010539;28;20595;-73
2021/03/27 05:35:33;;;;;;;13.65;4.22;;;;;;;5.21;78.13;101420.44;5036774;28;20053;-73
2021/03/27 05:38:30;;;;;;;17.13;4.13;;;;;;;5.13;78.60;101424.34;5014023;28;20110;-74
2021/03/27 05:41:03;;;;;;;12.82;4.00;;;;;;;5.22;79.23;101433.34;5030649;28;20057;-73
2021/03/27 05:44:00;;;;;;;16.50;4.18;;;;;;;5.23;78.34;101429.81;5021099;28;20100;-73
2021/03/27 05:46:53;;;;;;;13.25;4.05;;;;;;;5.27;77.94;101436.50;5029572;28;20054;-73
2021/03/27 05:49:53;;;;;;;11.65;3.75;;;;;;;5.27;78.00;101440.84;5030171;28;20154;-73
2021/03/27 05:52:37;;;;;;;18.05;4.43;;;;;;;5.24;77.81;101452.28;5033270;28;20057;-73
2021/03/27 05:55:21;;;;;;;14.52;4.32;;;;;;;5.25;78.32;101455.72;5004426;28;20057;-73
2021/03/27 05:58:26;;;;;;;16.35;4.15;;;;;;;5.33;78.10;101456.06;5024133;28;20571;-73
2021/03/27 06:01:22;;;;;;;18.45;4.15;;;;;;;5.30;77.89;101451.09;5013371;28;20064;-73
2021/03/27 06:03:59;;;;;;;18.08;5.50;;;;;;;5.31;77.73;101463.13;5003319;28;20062;-73
2021/03/27 06:06:28;;;;;;;23.33;4.73;;;;;;;5.34;77.94;101476.78;5017159;28;20093;-72
2021/03/27 06:09:20;;;;;;;25.65;4.50;;;;;;;5.41;77.91;101477.25;5024044;28;20065;-75
2021/03/27 06:11:48;;;;;;;27.02;4.65;;;;;;;5.42;77.77;101504.94;5018811;28;20054;-73
2021/03/27 06:14:32;;;;;;;19.45;5.25;;;;;;;5.40;77.49;101524.19;5019272;28;20054;-73
2021/03/27 06:17:30;;;;;;;18.10;3.60;;;;;;;5.35;76.62;101548.72;5022396;28;20060;-73
2021/03/27 06:20:34;;;;;;;19.60;3.22;;;;;;;5.09;74.38;101513.88;5029195;28;20120;-73
2021/03/27 06:23:16;;;;;;;12.48;2.72;;;;;;;5.08;74.69;101514.00;5008378;28;20180;-72
2021/03/27 06:25:47;;;;;;;12.93;3.20;;;;;;;4.96;75.64;101520.78;5021358;28;20157;-72
2021/03/27 06:28:41;;;;;;;18.55;2.55;;;;;;;4.80;76.23;101525.22;5004466;28;20072;-72
2021/03/27 06:31:28;;;;;;;11.23;2.80;;;;;;;4.69;75.61;101541.47;5026976;28;20045;-73
2021/03/27 06:34:18;;;;;;;14.18;2.92;;;;;;;4.62;76.48;101546.16;5031299;28;20575;-73
2021/03/27 06:37:03;;;;;;;24.52;3.55;;;;;;;4.60;76.43;101545.44;5028574;28;20567;-74
2021/03/27 06:39:40;;;;;;;9.57;3.00;;;;;;;4.56;76.40;101549.97;5018985;28;21052;-73
2021/03/27 06:42:09;;;;;;;13.30;2.75;;;;;;;4.51;76.41;101553.78;5019647;28;20057;-73
2021/03/27 06:45:11;;;;;;;10.80;2.25;;;;;;;4.45;76.75;101559.31;5022614;28;20049;-73
2021/03/27 06:48:14;;;;;;;12.05;2.65;;;;;;;4.45;76.72;101564.50;5027745;28;20061;-73
2021/03/27 06:51:13;;;;;;;17.13;3.08;;;;;;;4.36;76.93;101571.06;5018692;28;20053;-73
2021/03/27 06:53:58;;;;;;;17.63;3.67;;;;;;;4.38;76.97;101579.63;5000140;28;20069;-74
2021/03/27 06:57:18;;;;;;;13.77;3.30;;;;;;;4.41;77.15;101586.38;5014543;28;20663;-73
2021/03/27 07:00:15;;;;;;;14.65;4.28;;;;;;;4.41;76.68;101587.25;4985000;28;20063;-75
2021/03/27 07:03:07;;;;;;;8.00;2.70;;;;;;;4.33;76.43;101590.28;5017982;28;20065;-74
2021/03/27 07:05:55;;;;;;;16.63;3.28;;;;;;;4.30;76.33;101603.41;5000898;28;20100;-75
2021/03/27 07:08:40;;;;;;;11.77;3.47;;;;;;;4.25;76.47;101610.63;4997291;28;20456;-74
2021/03/27 07:11:06;;;;;;;17.50;2.85;;;;;;;4.22;76.89;101599.59;5000938;28;20089;-74
2021/03/27 07:14:09;;;;;;;20.73;3.17;;;;;;;4.26;77.07;101609.72;5016342;28;20049;-73
2021/03/27 07:16:53;;;;;;;15.90;4.28;;;;;;;4.32;77.65;101616.34;5024583;28;20061;-74
2021/03/27 07:19:54;;;;;;;16.00;4.15;;;;;;;4.41;77.85;101604.56;5017913;28;20061;-74
2021/03/27 07:22:50;;;;;;;10.02;2.38;;;;;;;4.48;78.28;101606.72;5022097;28;20499;-73
2021/03/27 07:25:42;;;;;;;11.55;2.80;;;;;;;4.53;77.58;101619.47;5013859;28;20058;-75
2021/03/27 07:28:40;;;;;;;20.45;2.88;;;;;;;4.59;77.31;101626.91;5014351;28;20054;-75
2021/03/27 07:31:24;;;;;;;13.75;2.78;;;;;;;4.66;77.31;101632.59;4996967;28;20057;-75
2021/03/27 07:34:04;;;;;;;14.98;2.22;;;;;;;4.73;76.85;101632.16;4996215;28;20473;-73
2021/03/27 07:36:45;;;;;;;15.02;2.50;;;;;;;4.87;76.42;101638.31;5013656;28;20092;-73
2021/03/27 07:39:50;;;;;;;16.00;2.38;;;;;;;5.02;76.15;101646.97;5011455;28;20052;-73
2021/03/27 07:42:36;;;;;;;21.15;2.30;;;;;;;5.11;75.76;101660.25;5013532;28;20758;-73
2021/03/27 07:45:11;;;;;;;22.83;3.13;;;;;;;5.30;76.28;101654.00;5030935;28;20057;-73
2021/03/27 07:47:42;;;;;;;18.20;2.40;;;;;;;5.41;75.89;101667.19;5011485;28;20169;-73
2021/03/27 07:50:26;;;;;;;25.48;3.40;;;;;;;5.43;75.25;101674.91;5038629;28;20664;-73
2021/03/27 07:53:23;;;;;;;18.63;3.17;;;;;;;5.52;74.82;101671.75;5032422;28;20053;-73
2021/03/27 07:56:26;;;;;;;16.50;2.80;;;;;;;5.59;74.64;101685.25;5011010;28;20069;-73
2021/03/27 07:59:23;;;;;;;19.90;2.80;;;;;;;5.62;74.33;101680.66;5001712;28;20061;-73
2021/03/27 08:02:11;;;;;;;12.43;2.88;;;;;;;5.70;74.69;101699.28;5003643;28;20058;-73
2021/03/27 08:04:53;;;;;;;13.05;2.65;;;;;;;5.70;74.01;101706.22;4999016;28;20057;-73
2021/03/27 08:07:38;;;;;;;7.85;2.05;;;;;;;5.68;74.23;101701.09;5005200;28;20096;-73
2021/03/27 08:10:24;;;;;;;15.13;2.80;;;;;;;5.80;74.37;101711.72;5003561;28;20608;-73
2021/03/27 08:12:59;;;;;;;18.83;3.00;;;;;;;5.76;74.32;101708.47;5019593;28;20092;-73
2021/03/27 08:15:37;;;;;;;25.30;3.10;;;;;;;5.70;74.30;101711.44;5013440;28;20068;-73
2021/03/27 08:18:38;;;;;;;9.13;2.10;;;;;;;5.78;74.78;101730.03;5010981;28;20050;-73
2021/03/27 08:21:04;;;;;;;13.85;2.97;;;;;;;5.68;73.58;101734.94;4997805;28;20108;-74
2021/03/27 08:24:05;;;;;;;15.68;3.08;;;;;;;5.69;73.72;101736.63;5007916;28;20069;-74
2021/03/27 08:26:53;;;;;;;22.50;3.08;;;;;;;5.70;74.37;101745.28;4999550;28;20050;-75
2021/03/27 08:30:04;;;;;;;17.37;2.57;;;;;;;5.67;74.13;101746.31;5006983;28;20069;-76
2021/03/27 08:32:36;;;;;;;13.23;2.13;;;;;;;5.43;72.69;101760.75;4995386;28;21000;-73
2021/03/27 08:35:33;;;;;;;14.15;2.58;;;;;;;4.86;71.62;101758.81;4998880;28;20058;-74
2021/03/27 08:38:24;;;;;;;15.40;2.08;;;;;;;4.61;72.14;101767.16;5003461;28;20088;-74
2021/03/27 08:41:22;;;;;;;14.13;2.67;;;;;;;4.44;72.80;101768.06;5004990;28;20057;-73
2021/03/27 08:43:54;;;;;;;11.30;2.40;;;;;;;4.37;73.87;101775.34;4997905;28;20054;-74
2021/03/27 08:46:48;;;;;;;14.77;1.98;;;;;;;4.39;73.46;101783.06;5002256;28;20567;-74
2021/03/27 08:49:45;;;;;;;8.70;2.17;;;;;;;4.32;73.88;101783.41;5005914;28;20062;-74
2021/03/27 08:52:26;;;;;;;12.57;2.15;;;;;;;4.30;73.55;101790.44;5042380;28;20114;-74
2021/03/27 08:55:11;;;;;;;16.00;3.03;;;;;;;4.39;73.85;101791.72;5034671;28;20652;-74
2021/03/27 08:57:43;;;;;;;14.73;2.75;;;;;;;4.53;74.58;101783.19;5041286;28;20564;-73
2021/03/27 09:00:16;;;;;;;21.45;2.20;;;;;;;4.58;74.76;101798.50;5015382;28;20050;-74
2021/03/27 09:03:12;;;;;;;14.70;2.30;;;;;;;4.71;74.62;101792.56;5000550;28;20054;-74
2021/03/27 09:05:54;;;;;;;15.77;2.38;;;;;;;4.99;74.04;101798.81;4997801;28;20131;-74
2021/03/27 09:08:28;;;;;;;17.80;2.90;;;;;;;5.35;74.35;101795.03;5011083;28;20108;-74
2021/03/27 09:11:02;;;;;;;11.82;2.42;;;;;;;5.39;72.24;101796.56;5006510;28;20399;-73
2021/03/27 09:13:47;;;;;;;11.40;1.83;;;;;;;5.31;71.34;101809.16;5010383;28;20127;-74
2021/03/27 09:16:35;;;;;;;8.57;1.90;;;;;;;5.32;72.59;101819.47;5024188;28;20448;-74
2021/03/27 09:19:16;;;;;;;14.02;2.13;;;;;;;5.25;72.35;101820.75;5017997;28;20412;-74
2021/03/27 09:22:13;;;;;;;14.05;1.90;;;;;;;5.42;73.20;101829.34;5026551;28;20061;-74
2021/03/27 09:25:24;;;;;;;19.60;2.15;;;;;;;5.63;73.67;101827.28;5010374;28;20049;-73
2021/03/27 09:28:08;;;;;;;15.48;2.80;;;;;;;5.74;72.99;101830.06;4994548;28;20898;-73
2021/03/27 09:30:52;;;;;;;15.88;2.67;;;;;;;6.03;72.57;101833.59;5006647;28;20058;-73
2021/03/27 09:33:49;;;;;;;17.17;2.60;;;;;;;6.05;70.11;101842.16;5003167;28;20824;-76
2021/03/27 09:36:33;;;;;;;19.10;3.58;;;;;;;6.17;69.19;101851.00;4993541;28;20072;-76
2021/03/27 09:39:13;;;;;;;15.27;2.92;;;;;;;6.24;69.37;101843.66;5006501;28;20054;-73
2021/03/27 09:41:56;;;;;;;23.30;3.38;;;;;;;6.49;69.49;101838.63;5022018;28;20072;-73
2021/03/27 09:44:31;;;;;;;20.65;4.22;;;;;;;6.56;69.03;101843.44;5014929;28;20551;-76
2021/03/27 09:47:21;;;;;;;21.45;3.10;;;;;;;6.76;67.77;101848.25;5010539;28;20057;-75
2021/03/27 09:50:16;;;;;;;21.83;3.28;;;;;;;6.98;67.83;101854.72;5044874;28;20114;-75
2021/03/27 09:52:42;;;;;;;25.05;3.80;;;;;;;7.10;67.06;101853.94;5043699;28;20543;-74
2021/03/27 09:55:46;;;;;;;15.57;3.63;;;;;;;7.30;67.22;101852.66;5014336;28;20065;-74
2021/03/27 09:58:41;;;;;;;16.90;2.88;;;;;;;6.90;62.12;101868.25;5030604;28;20103;-75
2021/03/27 10:01:24;;;;;;;16.35;3.80;;;;;;;6.95;62.87;101855.75;5035129;28;20053;-74
2021/03/27 10:03:57;;;;;;;17.13;2.83;;;;;;;7.31;62.88;101859.53;5011205;28;20061;-74
2021/03/27 10:07:00;;;;;;;13.85;3.00;;;;;;;7.48;59.82;101858.44;5035738;28;20505;-75
2021/03/27 10:09:50;;;;;;;21.38;2.85;;;;;;;7.77;58.50;101884.41;5009694;28;20065;-75
2021/03/27 10:12:26;;;;;;;10.45;2.67;;;;;;;7.93;57.04;101879.81;5031313;28;20101;-73
2021/03/27 10:15:22;;;;;;;12.98;2.20;;;;;;;8.09;55.56;101870.00;5032337;28;20454;-75
2021/03/27 10:18:04;;;;;;;13.07;2.22;;;;;;;8.24;53.29;101873.34;5037823;28;20060;-74
2021/03/27 10:21:13;;;;;;;12.82;2.75;;;;;;;8.59;55.79;101879.75;5014423;28;20053;-74
2021/03/27 10:24:19;;;;;;;15.25;3.10;;;;;;;8.60;54.43;101902.31;5004634;28;20060;-74
2021/03/27 10:27:05;;;;;;;;;;;;;;;8.65;54.54;101898.44;5022826;28;20057;-74
2021/03/27 10:29:41;;;;;;;11.20;1.77;;;;;;;8.60;49.74;101897.91;5012901;28;19952;-74
2021/03/27 10:32:31;;;;;;;12.32;1.70;;;;;;;8.72;48.76;101906.69;5035757;28;20057;-73
2021/03/27 10:35:40;;;;;;;15.75;2.25;;;;;;;9.19;50.18;101912.97;5024422;28;20053;-74
2021/03/27 10:38:26;;;;;;;17.90;2.25;;;;;;;9.17;46.28;101912.22;5028957;28;20060;-73
2021/03/27 10:41:11;;;;;;;9.93;1.70;;;;;;;9.23;47.84;101937.97;5026308;28;20057;-73
2021/03/27 10:43:52;;;;;;;13.02;2.97;;;;;;;9.25;47.53;101929.97;5030025;28;20481;-73
2021/03/27 10:46:18;;;;;;;21.05;2.72;;;;;;;9.45;47.22;101928.56;5044277;28;20091;-73
2021/03/27 10:48:59;;;;;;;19.27;2.97;;;;;;;9.59;46.58;101932.78;5037892;28;20064;-74
2021/03/27 10:51:37;;;;;;;14.77;2.58;;;;;;;9.61;46.35;101954.47;5041012;28;20091;-74
2021/03/27 10:54:12;;;;;;;13.70;2.60;;;;;;;9.99;48.64;101941.13;5034220;28;20060;-74
2021/03/27 10:56:57;;;;;;;12.27;2.03;;;;;;;10.18;46.54;101947.63;5025964;28;20110;-74
2021/03/27 10:59:41;;;;;;;12.35;1.88;;;;;;;10.06;44.19;101942.34;5009474;28;20058;-74
2021/03/27 11:02:42;;;;;;;17.13;2.38;;;;;;;10.23;44.28;101964.69;5025346;28;20085;-75
2021/03/27 11:05:23;;;;;;;20.58;2.50;;;;;;;9.96;43.86;101971.97;5012995;28;20049;-74
2021/03/27 11:08:27;;;;;;;10.00;2.28;;;;;;;10.49;44.86;101957.47;5006857;28;20125;-74
2021/03/27 11:11:10;;;;;;;10.23;1.98;;;;;;;10.94;45.35;101976.78;5010573;28;20057;-74
2021/03/27 11:13:53;;;;;;;11.95;2.03;;;;;;;10.76;42.08;101979.91;5019267;28;20056;-75
2021/03/27 11:16:45;;;;;;;8.30;1.77;;;;;;;10.66;39.70;101987.66;5012539;28;20085;-74
2021/03/27 11:19:13;;;;;;;10.60;1.60;;;;;;;10.98;40.92;101984.31;5001148;28;20058;-75
2021/03/27 11:22:04;;;;;;;10.57;2.13;;;;;;;11.00;42.55;101997.34;5013533;28;20784;-74
2021/03/27 11:24:38;;;;;;;8.73;1.90;;;;;;;11.00;43.70;101979.78;5008916;28;20057;-74
2021/03/27 11:27:18;;;;;;;11.68;3.00;;;;;;;11.08;42.79;101997.56;5004785;28;20057;-74
2021/03/27 11:29:56;;;;;;;16.25;2.47;;;;;;;11.32;44.46;101989.50;5007038;28;20061;-74
2021/03/27 11:32:50;;;;;;;16.83;2.40;;;;;;;10.94;42.24;102019.66;4997456;28;20055;-75
2021/03/27 11:35:29;;;;;;;29.40;2.20;;;;;;;10.89;43.86;101993.72;5014928;28;20057;-76
2021/03/27 11:38:38;;;;;;;14.85;3.22;;;;;;;10.67;45.55;102009.50;4996597;28;20918;-73
2021/03/27 11:41:16;;;;;;;;;;;;;;;10.17;43.88;102017.56;5001041;28;20686;-71
2021/03/27 11:43:45;;;;;;;;;;;;;;;9.84;44.87;102031.38;4982622;28;20000;-75
2021/03/27 11:46:30;;;;;;;14.43;3.00;;;;;;;9.54;45.48;102043.13;5018291;28;20634;-75
2021/03/27 11:49:08;;;;;;;14.73;2.35;;;;;;;9.45;47.03;102052.50;5007479;28;20069;-75
2021/03/27 11:51:41;;;;;;;9.15;3.05;;;;;;;9.32;47.38;102035.97;5011891;28;20111;-75
2021/03/27 11:55:01;;;;;;;13.77;3.20;;;;;;;9.17;47.42;102081.53;5019076;28;20642;-75
2021/03/27 11:57:53;;;;;;;17.08;3.00;;;;;;;9.08;49.42;102047.22;4996075;28;20085;-75
2021/03/27 12:00:48;;;;;;;13.98;2.88;;;;;;;8.91;51.71;102056.22;4991583;28;20057;-73
2021/03/27 12:03:26;;;;;;;14.75;2.38;;;;;;;8.76;52.21;102061.66;5003798;28;20120;-74
2021/03/27 12:06:10;;;;;;;15.82;2.55;;;;;;;8.62;50.48;102060.81;4999101;28;20571;-76
2021/03/27 12:09:07;;;;;;;12.02;2.35;;;;;;;8.69;50.64;102074.31;5015832;28;20115;-72
2021/03/27 12:11:45;;;;;;;17.00;2.45;;;;;;;8.76;51.06;102083.44;4998557;28;20110;-72
2021/03/27 12:14:17;;;;;;;16.75;2.92;;;;;;;8.85;51.10;102085.41;5005761;28;20056;-73
2021/03/27 12:16:58;;;;;;;18.75;2.60;;;;;;;8.66;49.25;102078.00;4998484;28;20119;-71
2021/03/27 12:19:44;;;;;;;20.90;2.92;;;;;;;8.79;51.07;102074.53;5007825;28;20713;-71
2021/03/27 12:22:27;;;;;;;17.98;2.78;;;;;;;8.85;51.59;102092.44;5005336;28;20397;-71
2021/03/27 12:24:53;;;;;;;13.00;2.85;;;;;;;8.47;49.93;102098.47;5011440;28;20062;-71
2021/03/27 12:27:40;;;;;;;16.15;2.50;;;;;;;8.49;52.19;102110.50;5006744;28;20056;-73
2021/03/27 12:30:34;;;;;;;18.38;3.05;;;;;;;8.41;53.23;102117.13;5002649;28;20056;-72
2021/03/27 12:33:34;;;;;;;14.63;2.90;;;;;;;8.25;53.70;102130.34;5002290;28;20145;-75
2021/03/27 12:36:12;;;;;;;16.92;3.50;;;;;;;8.36;56.74;102124.44;5007853;28;20486;-74
2021/03/27 12:39:00;;;;;;;18.40;3.20;;;;;;;8.41;55.89;102119.72;5009750;28;20053;-73
2021/03/27 12:41:36;;;;;;;21.83;3.30;;;;;;;8.03;53.50;102154.41;4999170;28;20089;-74